createdAt,value
2018-03-20T00:01:30.268Z,1.12
2018-03-20T00:03:56.629Z,1.07
2018-03-20T00:06:23.143Z,1.05
2018-03-20T00:08:49.572Z,1.12
2018-03-20T00:11:16.015Z,1.16
2018-03-20T00:13:42.341Z,1.16
2018-03-20T00:16:08.697Z,1.18
2018-03-20T00:18:35.180Z,1.18
2018-03-20T00:21:01.557Z,1.18
2018-03-20T00:23:27.895Z,1.07
2018-03-20T00:25:54.277Z,1.14
2018-03-20T00:28:20.718Z,1.16
2018-03-20T00:30:47.145Z,1.04
2018-03-20T00:33:13.644Z,0.97
2018-03-20T00:35:39.978Z,1.00
2018-03-20T00:38:06.463Z,1.09
2018-03-20T00:40:32.915Z,1.01
2018-03-20T00:42:59.435Z,1.06
2018-03-20T00:45:25.777Z,0.94
2018-03-20T00:47:52.308Z,0.94
2018-03-20T00:50:18.763Z,1.00
2018-03-20T00:52:45.104Z,0.93
2018-03-20T00:55:11.479Z,0.94
2018-03-20T00:57:37.949Z,0.91
2018-03-20T01:00:04.307Z,0.96
2018-03-20T01:02:30.752Z,0.96
2018-03-20T01:04:57.108Z,0.96
2018-03-20T01:07:23.497Z,0.91
2018-03-20T01:09:49.933Z,0.96
2018-03-20T01:12:16.227Z,0.91
2018-03-20T01:14:42.647Z,0.96
2018-03-20T01:17:09.021Z,0.91
2018-03-20T01:19:35.467Z,0.92
2018-03-20T01:22:01.797Z,0.97
2018-03-20T01:24:28.103Z,0.98
2018-03-20T01:26:55.586Z,0.98
2018-03-20T01:29:21.974Z,0.95
2018-03-20T01:31:48.354Z,0.97
2018-03-20T01:34:14.740Z,1.02
2018-03-20T01:36:41.091Z,1.01
2018-03-20T01:39:07.605Z,1.05
2018-03-20T01:41:33.972Z,0.95
2018-03-20T01:44:00.269Z,0.94
2018-03-20T01:46:26.638Z,1.06
2018-03-20T01:48:53.041Z,0.99
2018-03-20T01:51:19.367Z,1.01
2018-03-20T01:53:45.741Z,0.98
2018-03-20T01:56:12.082Z,0.95
2018-03-20T01:58:38.499Z,0.97
2018-03-20T02:01:04.908Z,0.95
2018-03-20T02:03:31.411Z,0.93
2018-03-20T02:05:57.704Z,0.94
2018-03-20T02:08:24.196Z,0.94
2018-03-20T02:10:50.572Z,0.90
2018-03-20T02:13:16.903Z,0.88
2018-03-20T02:15:43.344Z,0.85
2018-03-20T02:18:09.710Z,0.85
2018-03-20T02:20:36.060Z,0.86
2018-03-20T02:23:02.487Z,0.87
2018-03-20T02:25:28.811Z,0.87
2018-03-20T02:27:55.210Z,0.89
2018-03-20T02:30:21.588Z,0.90
2018-03-20T02:32:47.896Z,0.79
2018-03-20T02:35:14.337Z,0.91
2018-03-20T02:37:40.844Z,0.87
2018-03-20T02:40:07.197Z,0.87
2018-03-20T02:42:33.498Z,0.87
2018-03-20T02:44:59.869Z,0.86
2018-03-20T02:47:26.202Z,0.91
2018-03-20T02:49:52.527Z,0.79
2018-03-20T02:52:19.702Z,0.85
2018-03-20T02:54:46.030Z,0.84
2018-03-20T02:57:12.342Z,0.79
2018-03-20T02:59:38.662Z,0.77
2018-03-20T03:02:05.030Z,0.80
2018-03-20T03:04:31.325Z,0.81
2018-03-20T03:06:57.666Z,0.88
2018-03-20T03:09:25.093Z,0.84
2018-03-20T03:11:51.385Z,0.87
2018-03-20T03:14:17.791Z,0.84
2018-03-20T03:16:44.106Z,0.83
2018-03-20T03:19:10.436Z,0.85
2018-03-20T03:21:36.752Z,0.85
2018-03-20T03:24:03.046Z,0.87
2018-03-20T03:26:29.549Z,0.86
2018-03-20T03:28:56.101Z,0.85
2018-03-20T03:31:22.400Z,0.85
2018-03-20T03:33:48.734Z,0.85
2018-03-20T03:36:15.075Z,0.88
2018-03-20T03:38:42.259Z,0.91
2018-03-20T03:41:08.561Z,0.88
2018-03-20T03:43:34.904Z,0.88
2018-03-20T03:46:01.265Z,0.91
2018-03-20T03:48:27.686Z,0.86
2018-03-20T03:50:54.090Z,0.87
2018-03-20T03:53:20.401Z,0.84
2018-03-20T03:55:46.719Z,0.85
2018-03-20T03:58:13.103Z,0.72
2018-03-20T04:00:39.516Z,0.81
2018-03-20T04:03:05.869Z,0.81
2018-03-20T04:05:32.215Z,0.77
2018-03-20T04:07:58.614Z,0.80
2018-03-20T04:10:24.952Z,0.81
2018-03-20T04:12:51.344Z,0.82
2018-03-20T04:15:17.689Z,0.82
2018-03-20T04:17:44.081Z,0.82
2018-03-20T04:20:10.604Z,0.81
2018-03-20T04:22:36.969Z,0.81
2018-03-20T04:25:03.415Z,0.77
2018-03-20T04:27:29.769Z,0.75
2018-03-20T04:29:56.130Z,0.81
2018-03-20T04:32:22.421Z,0.80
2018-03-20T04:34:48.783Z,0.78
2018-03-20T04:37:15.120Z,0.82
2018-03-20T04:39:41.623Z,0.82
2018-03-20T04:42:07.979Z,0.82
2018-03-20T04:44:34.298Z,0.87
2018-03-20T04:47:00.611Z,0.82
2018-03-20T04:49:27.081Z,0.85
2018-03-20T04:51:53.434Z,0.86
2018-03-20T04:54:19.773Z,0.92
2018-03-20T04:56:46.171Z,0.98
2018-03-20T04:59:12.644Z,1.04
2018-03-20T05:01:39.061Z,1.12
2018-03-20T05:04:05.431Z,1.20
2018-03-20T05:06:31.743Z,1.29
2018-03-20T05:08:58.141Z,1.27
2018-03-20T05:11:24.564Z,1.40
2018-03-20T05:13:50.912Z,1.40
2018-03-20T05:16:17.341Z,1.46
2018-03-20T05:18:44.636Z,1.56
2018-03-20T05:21:16.902Z,1.60
2018-03-20T05:23:56.119Z,1.69
2018-03-20T05:26:22.556Z,1.88
2018-03-20T05:28:48.942Z,2.00
2018-03-20T05:31:15.388Z,1.95
2018-03-20T05:33:41.751Z,2.08
2018-03-20T05:36:08.225Z,2.38
2018-03-20T05:38:34.797Z,2.35
2018-03-20T05:41:01.198Z,2.42
2018-03-20T05:43:27.585Z,2.49
2018-03-20T05:45:54.020Z,2.53
2018-03-20T05:48:20.447Z,2.61
2018-03-20T05:50:52.894Z,2.69
2018-03-20T05:53:19.386Z,2.79
2018-03-20T05:55:45.783Z,2.77
2018-03-20T05:58:12.228Z,2.66
2018-03-20T06:00:38.617Z,2.80
2018-03-20T06:03:04.902Z,3.13
2018-03-20T06:05:31.332Z,3.33
2018-03-20T06:07:57.745Z,3.62
2018-03-20T06:10:24.092Z,3.97
2018-03-20T06:12:50.457Z,3.88
2018-03-20T06:15:16.798Z,3.85
2018-03-20T06:17:43.147Z,3.95
2018-03-20T06:20:09.613Z,4.27
2018-03-20T06:22:36.018Z,4.41
2018-03-20T06:25:02.361Z,4.24
2018-03-20T06:27:28.759Z,4.74
2018-03-20T06:29:55.190Z,5.05
2018-03-20T06:32:21.593Z,5.18
2018-03-20T06:34:47.959Z,5.47
2018-03-20T06:37:14.375Z,6.09
2018-03-20T06:39:40.836Z,6.14
2018-03-20T06:42:07.280Z,6.12
2018-03-20T06:44:33.776Z,5.43
2018-03-20T06:47:00.178Z,5.28
2018-03-20T06:49:26.647Z,5.52
2018-03-20T06:51:53.005Z,5.90
2018-03-20T06:54:19.448Z,5.86
2018-03-20T06:56:45.944Z,5.32
2018-03-20T06:59:12.433Z,5.33
2018-03-20T07:01:38.987Z,5.43
2018-03-20T07:04:05.518Z,5.67
2018-03-20T07:06:31.954Z,5.92
2018-03-20T07:08:58.499Z,6.10
2018-03-20T07:11:25.001Z,5.64
2018-03-20T07:13:51.933Z,7.03
2018-03-20T07:16:18.769Z,7.51
2018-03-20T07:18:45.378Z,7.10
2018-03-20T07:21:11.899Z,6.26
2018-03-20T07:23:38.278Z,5.07
2018-03-20T07:26:04.799Z,5.32
2018-03-20T07:28:31.251Z,5.63
2018-03-20T07:30:57.749Z,6.20
2018-03-20T07:33:24.246Z,6.44
2018-03-20T07:35:50.625Z,7.08
2018-03-20T07:38:16.987Z,6.43
2018-03-20T07:40:43.415Z,7.33
2018-03-20T07:43:09.764Z,6.69
2018-03-20T07:45:36.113Z,5.99
2018-03-20T07:48:02.580Z,5.95
2018-03-20T07:50:28.900Z,6.48
2018-03-20T07:52:55.221Z,6.18
2018-03-20T07:55:21.687Z,6.38
2018-03-20T07:57:48.172Z,6.37
2018-03-20T08:00:14.590Z,6.48
2018-03-20T08:02:41.174Z,6.81
2018-03-20T08:05:07.568Z,6.99
2018-03-20T08:07:34.074Z,7.13
2018-03-20T08:10:00.753Z,7.29
2018-03-20T08:12:27.113Z,6.60
2018-03-20T08:14:53.536Z,6.25
2018-03-20T08:17:19.919Z,6.82
2018-03-20T08:19:46.354Z,6.69
2018-03-20T08:22:12.717Z,7.71
2018-03-20T08:24:39.104Z,7.62
2018-03-20T08:27:05.488Z,6.80
2018-03-20T08:29:31.900Z,6.38
2018-03-20T08:31:58.327Z,6.55
2018-03-20T08:34:24.703Z,5.76
2018-03-20T08:36:51.161Z,5.30
2018-03-20T08:39:17.754Z,5.27
2018-03-20T08:41:44.111Z,5.58
2018-03-20T08:44:10.501Z,6.01
2018-03-20T08:46:36.966Z,5.81
2018-03-20T08:49:03.365Z,5.75
2018-03-20T08:51:29.731Z,5.40
2018-03-20T08:53:56.146Z,5.15
2018-03-20T08:56:22.624Z,5.18
2018-03-20T08:58:48.987Z,5.24
2018-03-20T09:01:15.394Z,5.18
2018-03-20T09:03:41.884Z,5.18
2018-03-20T09:06:08.363Z,5.11
2018-03-20T09:08:34.818Z,4.96
2018-03-20T09:11:01.153Z,4.58
2018-03-20T09:13:27.636Z,4.76
2018-03-20T09:15:54.151Z,4.87
2018-03-20T09:18:20.568Z,4.86
2018-03-20T09:20:47.010Z,5.04
2018-03-20T09:23:13.481Z,5.03
2018-03-20T09:25:39.979Z,5.19
2018-03-20T09:28:06.450Z,5.14
2018-03-20T09:30:33.031Z,5.68
2018-03-20T09:32:59.804Z,6.46
2018-03-20T09:35:26.210Z,7.07
2018-03-20T09:37:52.616Z,6.80
2018-03-20T09:40:19.105Z,7.16
2018-03-20T09:42:45.582Z,6.85
2018-03-20T09:45:12.022Z,7.41
2018-03-20T09:47:38.449Z,8.02
2018-03-20T09:50:04.937Z,7.68
2018-03-20T09:52:31.554Z,7.15
2018-03-20T09:54:57.922Z,7.52
2018-03-20T09:57:24.538Z,7.72
2018-03-20T09:59:51.180Z,7.99
2018-03-20T10:02:17.599Z,7.72
2018-03-20T10:04:43.934Z,7.88
2018-03-20T10:07:10.377Z,7.80
2018-03-20T10:09:36.968Z,7.83
2018-03-20T10:12:03.337Z,7.74
2018-03-20T10:14:29.767Z,7.81
2018-03-20T10:16:56.221Z,7.57
2018-03-20T10:19:22.764Z,7.60
2018-03-20T10:21:49.216Z,7.92
2018-03-20T10:24:15.735Z,7.86
2018-03-20T10:26:42.175Z,7.60
2018-03-20T10:29:08.672Z,7.78
2018-03-20T10:31:35.205Z,7.80
2018-03-20T10:34:01.564Z,8.02
2018-03-20T10:36:28.297Z,8.51
2018-03-20T10:38:54.853Z,8.64
2018-03-20T10:41:21.456Z,8.69
2018-03-20T10:43:47.897Z,8.46
2018-03-20T10:46:14.379Z,8.57
2018-03-20T10:48:40.819Z,8.66
2018-03-20T10:51:08.265Z,8.54
2018-03-20T10:53:34.697Z,8.68
2018-03-20T10:56:01.246Z,8.72
2018-03-20T10:58:27.730Z,8.77
2018-03-20T11:01:00.381Z,8.61
2018-03-20T11:03:26.788Z,8.45
2018-03-20T11:05:53.168Z,8.34
2018-03-20T11:08:19.731Z,8.61
2018-03-20T11:10:46.287Z,8.55
2018-03-20T11:13:13.696Z,8.84
2018-03-20T11:15:40.184Z,8.84
2018-03-20T11:18:06.808Z,8.63
2018-03-20T11:20:33.254Z,8.54
2018-03-20T11:22:59.939Z,8.58
2018-03-20T11:25:26.424Z,8.83
2018-03-20T11:27:52.883Z,8.57
2018-03-20T11:30:19.414Z,9.16
2018-03-20T11:32:45.875Z,9.14
2018-03-20T11:35:12.242Z,9.18
2018-03-20T11:37:38.811Z,9.36
2018-03-20T11:40:05.306Z,9.42
2018-03-20T11:42:31.812Z,9.48
2018-03-20T11:44:58.372Z,9.61
2018-03-20T11:47:24.815Z,9.81
2018-03-20T11:49:51.231Z,10.21
2018-03-20T11:52:17.681Z,10.62
2018-03-20T11:54:44.089Z,10.73
2018-03-20T11:57:10.531Z,11.05
2018-03-20T11:59:37.656Z,10.93
2018-03-20T12:02:04.072Z,11.14
2018-03-20T12:04:30.453Z,10.38
2018-03-20T12:06:58.215Z,10.36
2018-03-20T12:09:48.762Z,11.06
2018-03-20T12:12:15.198Z,10.50
2018-03-20T12:14:41.569Z,10.32
2018-03-20T12:17:08.069Z,10.10
2018-03-20T12:19:34.598Z,10.01
2018-03-20T12:22:01.050Z,10.55
2018-03-20T12:24:27.560Z,10.58
2018-03-20T12:26:53.956Z,10.91
2018-03-20T12:29:20.414Z,11.30
2018-03-20T12:31:46.769Z,11.65
2018-03-20T12:34:13.162Z,11.80
2018-03-20T12:36:39.539Z,11.73
2018-03-20T12:39:06.020Z,11.75
2018-03-20T12:41:32.543Z,11.71
2018-03-20T12:43:58.945Z,11.49
2018-03-20T12:46:25.288Z,11.88
2018-03-20T12:48:52.479Z,11.84
2018-03-20T12:51:18.835Z,11.97
2018-03-20T12:53:45.315Z,12.22
2018-03-20T12:56:11.739Z,12.26
2018-03-20T12:58:38.242Z,12.20
2018-03-20T13:01:04.767Z,12.34
2018-03-20T13:03:31.236Z,12.20
2018-03-20T13:05:57.734Z,12.06
2018-03-20T13:08:24.172Z,11.85
2018-03-20T13:10:50.568Z,12.04
2018-03-20T13:13:17.178Z,12.26
2018-03-20T13:15:43.664Z,12.30
2018-03-20T13:18:10.005Z,12.12
2018-03-20T13:20:36.431Z,12.08
2018-03-20T13:23:02.950Z,12.28
2018-03-20T13:25:29.282Z,12.32
2018-03-20T13:27:55.666Z,12.22
2018-03-20T13:30:22.273Z,12.09
2018-03-20T13:32:48.691Z,11.71
2018-03-20T13:35:15.031Z,11.91
2018-03-20T13:37:41.731Z,11.79
2018-03-20T13:40:08.630Z,11.75
2018-03-20T13:42:35.017Z,11.66
2018-03-20T13:45:01.367Z,11.41
2018-03-20T13:47:27.801Z,11.38
2018-03-20T13:49:54.287Z,11.38
2018-03-20T13:52:20.811Z,11.45
2018-03-20T13:54:47.261Z,11.58
2018-03-20T13:57:13.609Z,11.78
2018-03-20T13:59:40.227Z,11.67
2018-03-20T14:02:06.575Z,11.57
2018-03-20T14:04:33.041Z,11.56
2018-03-20T14:07:00.844Z,11.29
2018-03-20T14:09:27.678Z,11.06
2018-03-20T14:11:54.339Z,10.75
2018-03-20T14:14:21.169Z,10.48
2018-03-20T14:16:48.245Z,10.50
2018-03-20T14:19:14.927Z,10.22
2018-03-20T14:21:41.436Z,10.10
2018-03-20T14:24:07.946Z,10.23
2018-03-20T14:26:34.353Z,10.37
2018-03-20T14:29:01.049Z,10.89
2018-03-20T14:31:28.858Z,11.29
2018-03-20T14:33:55.286Z,11.24
2018-03-20T14:36:21.673Z,11.36
2018-03-20T14:38:48.100Z,11.12
2018-03-20T14:41:14.650Z,11.07
2018-03-20T14:43:41.103Z,11.12
2018-03-20T14:46:07.445Z,10.89
2018-03-20T14:48:33.880Z,10.79
2018-03-20T14:51:00.377Z,10.82
2018-03-20T14:53:26.705Z,10.77
2018-03-20T14:55:53.160Z,11.01
2018-03-20T14:58:19.606Z,11.15
2018-03-20T15:00:46.033Z,11.27
2018-03-20T15:03:12.386Z,11.24
2018-03-20T15:05:38.885Z,11.30
2018-03-20T15:08:05.253Z,11.40
2018-03-20T15:10:31.743Z,11.56
2018-03-20T15:12:58.359Z,11.56
2018-03-20T15:15:24.712Z,11.46
2018-03-20T15:17:51.169Z,11.55
2018-03-20T15:20:17.853Z,11.48
2018-03-20T15:22:44.399Z,11.17
2018-03-20T15:25:10.765Z,11.13
2018-03-20T15:27:37.277Z,10.84
2018-03-20T15:30:04.006Z,10.60
2018-03-20T15:32:30.664Z,10.55
2018-03-20T15:34:57.186Z,10.33
2018-03-20T15:37:23.701Z,10.30
2018-03-20T15:39:51.222Z,10.19
2018-03-20T15:42:17.967Z,10.05
2018-03-20T15:44:44.328Z,10.03
2018-03-20T15:47:10.750Z,9.88
2018-03-20T15:49:37.167Z,9.41
2018-03-20T15:52:03.573Z,9.26
2018-03-20T15:54:30.009Z,9.30
2018-03-20T15:56:56.655Z,9.09
2018-03-20T15:59:23.347Z,8.89
2018-03-20T16:01:49.940Z,8.78
2018-03-20T16:04:16.718Z,8.75
2018-03-20T16:06:43.365Z,8.39
2018-03-20T16:09:09.988Z,8.34
2018-03-20T16:11:36.499Z,8.28
2018-03-20T16:14:02.885Z,8.25
2018-03-20T16:16:29.327Z,8.16
2018-03-20T16:18:56.075Z,8.08
2018-03-20T16:21:22.531Z,8.10
2018-03-20T16:23:49.600Z,7.92
2018-03-20T16:26:16.564Z,7.85
2018-03-20T16:28:43.550Z,7.86
2018-03-20T16:31:10.358Z,7.78
2018-03-20T16:33:38.250Z,7.64
2018-03-20T16:36:04.948Z,7.66
2018-03-20T16:38:31.831Z,7.64
2018-03-20T16:40:58.685Z,7.60
2018-03-20T16:43:25.362Z,7.61
2018-03-20T16:45:52.233Z,7.56
2018-03-20T16:48:19.640Z,7.47
2018-03-20T16:50:46.453Z,7.48
2018-03-20T16:53:13.118Z,7.41
2018-03-20T16:55:39.763Z,7.37
2018-03-20T16:58:06.448Z,7.43
2018-03-20T17:00:33.257Z,7.34
2018-03-20T17:03:00.338Z,7.37
2018-03-20T17:05:27.049Z,7.16
2018-03-20T17:07:53.651Z,7.10
2018-03-20T17:10:20.508Z,7.03
2018-03-20T17:12:47.214Z,6.98
2018-03-20T17:15:14.034Z,6.98
2018-03-20T17:17:40.936Z,6.88
2018-03-20T17:20:08.273Z,6.75
2018-03-20T17:22:34.971Z,6.72
2018-03-20T17:25:01.794Z,6.66
2018-03-20T17:27:28.456Z,6.56
2018-03-20T17:29:55.336Z,6.36
2018-03-20T17:32:22.242Z,6.22
2018-03-20T17:34:49.020Z,6.08
2018-03-20T17:37:15.765Z,5.87
2018-03-20T17:39:42.564Z,5.74
2018-03-20T17:42:09.234Z,5.51
2018-03-20T17:44:35.951Z,5.36
2018-03-20T17:47:03.487Z,5.26
2018-03-20T17:49:30.325Z,5.17
2018-03-20T17:51:57.499Z,5.09
2018-03-20T17:54:24.255Z,4.95
2018-03-20T17:56:50.971Z,4.87
2018-03-20T17:59:17.657Z,4.75
2018-03-20T18:01:44.428Z,4.72
2018-03-20T18:04:11.183Z,4.66
2018-03-20T18:06:37.954Z,4.63
2018-03-20T18:09:04.743Z,4.70
2018-03-20T18:11:31.399Z,4.64
2018-03-20T18:13:58.165Z,4.60
2018-03-20T18:16:24.972Z,4.52
2018-03-20T18:18:52.614Z,4.52
2018-03-20T18:21:19.596Z,4.50
2018-03-20T18:23:46.338Z,4.43
2018-03-20T18:26:13.252Z,4.45
2018-03-20T18:28:40.282Z,4.46
2018-03-20T18:31:07.152Z,4.49
2018-03-20T18:33:33.778Z,4.47
2018-03-20T18:36:00.541Z,4.47
2018-03-20T18:38:27.335Z,4.47
2018-03-20T18:40:54.307Z,4.48
2018-03-20T18:43:21.050Z,4.48
2018-03-20T18:45:47.681Z,4.46
2018-03-20T18:48:14.430Z,4.41
2018-03-20T18:50:41.367Z,4.44
2018-03-20T18:53:08.110Z,4.45
2018-03-20T18:55:34.836Z,4.46
2018-03-20T18:58:01.570Z,4.46
2018-03-20T19:00:28.223Z,4.44
2018-03-20T19:02:55.731Z,4.46
2018-03-20T19:05:22.510Z,4.47
2018-03-20T19:07:49.274Z,4.45
2018-03-20T19:10:17.054Z,4.42
2018-03-20T19:12:43.803Z,4.38
2018-03-20T19:15:10.507Z,4.37
2018-03-20T19:17:37.083Z,4.38
2018-03-20T19:20:03.986Z,4.33
2018-03-20T19:22:30.775Z,4.43
2018-03-20T19:24:57.484Z,4.36
2018-03-20T19:27:24.834Z,4.22
2018-03-20T19:29:51.510Z,4.22
2018-03-20T19:32:18.385Z,4.18
2018-03-20T19:34:45.136Z,4.16
2018-03-20T19:37:11.859Z,4.10
2018-03-20T19:39:38.537Z,4.11
2018-03-20T19:42:05.805Z,4.13
2018-03-20T19:44:32.676Z,4.10
2018-03-20T19:46:59.399Z,4.05
2018-03-20T19:49:26.235Z,4.07
2018-03-20T19:51:52.914Z,4.10
2018-03-20T19:54:19.708Z,4.11
2018-03-20T19:56:46.709Z,4.03
2018-03-20T19:59:13.579Z,3.97
2018-03-20T20:01:40.306Z,3.96
2018-03-20T20:04:07.022Z,3.95
2018-03-20T20:06:33.727Z,3.99
2018-03-20T20:09:00.532Z,3.96
2018-03-20T20:11:27.400Z,3.89
2018-03-20T20:13:54.153Z,3.85
2018-03-20T20:16:21.008Z,3.87
2018-03-20T20:18:47.798Z,3.92
2018-03-20T20:21:14.618Z,3.94
2018-03-20T20:23:41.409Z,3.97
2018-03-20T20:26:08.329Z,3.94
2018-03-20T20:28:34.870Z,3.99
2018-03-20T20:31:01.700Z,4.01
2018-03-20T20:33:28.733Z,4.00
2018-03-20T20:35:56.051Z,4.09
2018-03-20T20:38:22.769Z,4.07
2018-03-20T20:40:49.551Z,4.07
2018-03-20T20:43:16.144Z,4.12
2018-03-20T20:45:42.718Z,4.14
2018-03-20T20:48:09.560Z,4.16
2018-03-20T20:50:36.136Z,4.36
2018-03-20T20:53:02.879Z,4.28
2018-03-20T20:55:29.323Z,4.19
2018-03-20T20:57:55.693Z,4.12
2018-03-20T21:00:22.211Z,4.15
2018-03-20T21:02:48.706Z,4.15
2018-03-20T21:05:15.230Z,4.15
2018-03-20T21:07:41.871Z,4.07
2018-03-20T21:10:08.303Z,4.00
2018-03-20T21:12:34.751Z,3.94
2018-03-20T21:15:01.305Z,3.95
2018-03-20T21:17:27.736Z,3.99
2018-03-20T21:19:54.305Z,4.34
2018-03-20T21:22:20.814Z,4.29
2018-03-20T21:24:47.161Z,4.28
2018-03-20T21:27:13.533Z,4.19
2018-03-20T21:29:40.061Z,4.10
2018-03-20T21:32:06.467Z,4.06
2018-03-20T21:34:32.904Z,4.13
2018-03-20T21:36:59.284Z,4.17
2018-03-20T21:39:25.761Z,4.09
2018-03-20T21:41:52.187Z,4.09
2018-03-20T21:44:18.528Z,4.06
2018-03-20T21:46:44.866Z,4.03
2018-03-20T21:49:11.338Z,4.00
2018-03-20T21:51:38.013Z,3.96
2018-03-20T21:54:04.535Z,3.91
2018-03-20T21:56:30.906Z,3.86
2018-03-20T21:58:57.313Z,3.86
2018-03-20T22:01:23.668Z,3.91
2018-03-20T22:03:50.051Z,3.90
2018-03-20T22:06:16.460Z,3.90
2018-03-20T22:08:42.787Z,3.89
2018-03-20T22:11:09.252Z,3.90
2018-03-20T22:13:35.573Z,3.90
2018-03-20T22:16:02.434Z,3.91
2018-03-20T22:18:28.991Z,3.90
2018-03-20T22:20:55.396Z,3.88
2018-03-20T22:23:21.757Z,3.90
2018-03-20T22:25:48.174Z,3.92
2018-03-20T22:28:14.553Z,3.92
2018-03-20T22:30:41.040Z,3.91
2018-03-20T22:33:07.570Z,3.91
2018-03-20T22:35:33.975Z,3.92
2018-03-20T22:38:00.351Z,3.93
2018-03-20T22:40:26.925Z,3.93
2018-03-20T22:42:53.469Z,3.92
2018-03-20T22:45:19.817Z,3.95
2018-03-20T22:47:46.357Z,3.99
2018-03-20T22:50:12.890Z,3.99
2018-03-20T22:52:39.255Z,3.98
2018-03-20T22:55:05.791Z,4.04
2018-03-20T22:57:32.263Z,4.08
2018-03-20T22:59:58.883Z,4.11
2018-03-20T23:02:25.367Z,4.15
2018-03-20T23:04:51.967Z,4.17
2018-03-20T23:07:18.409Z,4.17
2018-03-20T23:09:44.844Z,4.18
2018-03-20T23:12:11.325Z,4.18
2018-03-20T23:14:37.696Z,4.18
2018-03-20T23:17:04.229Z,4.21
2018-03-20T23:19:30.721Z,4.20
2018-03-20T23:21:57.236Z,4.20
2018-03-20T23:24:23.605Z,4.22
2018-03-20T23:26:50.008Z,4.22
2018-03-20T23:29:16.498Z,4.19
2018-03-20T23:31:42.878Z,4.21
2018-03-20T23:34:09.226Z,4.20
2018-03-20T23:36:35.558Z,4.17
2018-03-20T23:39:01.963Z,4.15
2018-03-20T23:41:28.400Z,4.12
2018-03-20T23:43:54.708Z,4.12
2018-03-20T23:46:21.066Z,4.11
2018-03-20T23:48:47.372Z,4.10
2018-03-20T23:51:13.972Z,4.08
2018-03-20T23:53:40.475Z,4.08
2018-03-20T23:56:06.819Z,4.07
2018-03-20T23:58:33.191Z,4.08
